createdAt,value
2023-02-06T00:00:10.916Z,9.70
2023-02-06T00:03:12.637Z,8.55
2023-02-06T00:06:15.012Z,9.25
2023-02-06T00:09:16.549Z,8.73
2023-02-06T00:12:18.316Z,7.97
2023-02-06T00:15:21.639Z,8.82
2023-02-06T00:18:23.397Z,7.32
2023-02-06T00:21:26.254Z,8.40
2023-02-06T00:24:27.919Z,8.07
2023-02-06T00:27:29.800Z,8.02
2023-02-06T00:30:33.524Z,8.70
2023-02-06T00:33:35.732Z,8.20
2023-02-06T00:36:37.799Z,7.97
2023-02-06T00:39:41.741Z,7.45
2023-02-06T00:42:45.843Z,7.72
2023-02-06T00:45:52.418Z,7.57
2023-02-06T00:48:54.083Z,7.32
2023-02-06T00:51:55.714Z,7.75
2023-02-06T00:54:57.294Z,7.32
2023-02-06T00:58:02.199Z,7.05
2023-02-06T01:01:04.415Z,7.30
2023-02-06T01:04:06.098Z,7.05
2023-02-06T01:07:07.764Z,6.25
2023-02-06T01:10:11.934Z,7.40
2023-02-06T01:13:14.481Z,5.78
2023-02-06T01:16:19.064Z,5.70
2023-02-06T01:19:20.719Z,5.97
2023-02-06T01:22:22.290Z,5.80
2023-02-06T01:25:23.991Z,5.72
2023-02-06T01:28:25.612Z,5.68
2023-02-06T01:31:29.794Z,6.38
2023-02-06T01:34:31.409Z,7.45
2023-02-06T01:37:33.253Z,5.97
2023-02-06T01:40:34.930Z,5.57
2023-02-06T01:43:40.105Z,5.30
2023-02-06T01:46:44.804Z,5.88
2023-02-06T01:49:50.254Z,5.63
2023-02-06T01:52:52.450Z,5.38
2023-02-06T01:55:56.440Z,5.40
2023-02-06T01:59:02.901Z,5.30
2023-02-06T02:02:04.659Z,5.28
2023-02-06T02:05:08.351Z,6.88
2023-02-06T02:08:18.469Z,5.55
2023-02-06T02:11:28.522Z,4.97
2023-02-06T02:14:30.534Z,5.38
2023-02-06T02:18:02.552Z,5.18
2023-02-06T02:21:27.641Z,5.30
2023-02-06T02:25:06.831Z,5.40
2023-02-06T02:28:31.388Z,4.97
2023-02-06T02:31:49.950Z,5.30
2023-02-06T02:35:14.223Z,5.68
2023-02-06T02:38:19.100Z,5.07
2023-02-06T02:41:24.449Z,6.30
2023-02-06T02:44:36.805Z,5.32
2023-02-06T02:47:49.579Z,5.75
2023-02-06T02:50:54.130Z,6.13
2023-02-06T02:53:57.905Z,5.85
2023-02-06T02:57:09.952Z,6.10
2023-02-06T03:00:13.322Z,6.03
2023-02-06T03:03:18.216Z,5.25
2023-02-06T03:06:47.645Z,6.97
2023-02-06T03:10:05.772Z,6.35
2023-02-06T03:13:25.918Z,6.00
2023-02-06T03:16:40.947Z,5.88
2023-02-06T03:19:48.556Z,6.30
2023-02-06T03:22:51.704Z,6.18
2023-02-06T03:26:00.419Z,6.47
2023-02-06T03:29:06.827Z,6.97
2023-02-06T03:32:15.532Z,5.93
2023-02-06T03:35:21.591Z,6.25
2023-02-06T03:38:24.793Z,5.82
2023-02-06T03:41:31.940Z,6.45
2023-02-06T03:44:38.228Z,6.60
2023-02-06T03:47:41.222Z,6.45
2023-02-06T03:50:46.598Z,7.03
2023-02-06T03:53:52.539Z,6.63
2023-02-06T03:57:01.040Z,7.72
2023-02-06T04:00:04.492Z,7.55
2023-02-06T04:03:14.665Z,7.75
2023-02-06T04:06:16.340Z,7.25
2023-02-06T04:09:17.871Z,7.03
2023-02-06T04:12:20.177Z,14.38
2023-02-06T04:15:22.162Z,10.38
2023-02-06T04:18:24.094Z,9.18
2023-02-06T04:21:25.644Z,8.07
2023-02-06T04:24:28.753Z,9.18
2023-02-06T04:27:32.641Z,9.32
2023-02-06T04:30:34.334Z,8.65
2023-02-06T04:33:35.922Z,8.32
2023-02-06T04:36:37.751Z,8.95
2023-02-06T04:39:39.478Z,8.98
2023-02-06T04:42:41.128Z,8.77
2023-02-06T04:45:42.695Z,8.77
2023-02-06T04:48:44.257Z,8.70
2023-02-06T04:51:45.896Z,8.45
2023-02-06T04:54:47.561Z,9.30
2023-02-06T04:57:49.287Z,8.95
2023-02-06T05:00:50.901Z,9.05
2023-02-06T05:03:52.479Z,8.85
2023-02-06T05:06:54.120Z,9.48
2023-02-06T05:09:55.709Z,9.50
2023-02-06T05:12:57.338Z,9.27
2023-02-06T05:16:08.396Z,8.40
2023-02-06T05:19:10.064Z,8.70
2023-02-06T05:22:11.602Z,8.40
2023-02-06T05:25:13.172Z,9.07
2023-02-06T05:28:14.784Z,9.13
2023-02-06T05:31:19.895Z,9.05
2023-02-06T05:34:21.686Z,9.48
2023-02-06T05:37:23.312Z,9.63
2023-02-06T05:40:25.016Z,11.10
2023-02-06T05:43:26.679Z,10.65
2023-02-06T05:46:28.466Z,9.68
2023-02-06T05:49:30.032Z,10.48
2023-02-06T05:52:31.814Z,12.88
2023-02-06T05:55:33.498Z,12.70
2023-02-06T05:58:35.231Z,15.27
2023-02-06T06:01:36.930Z,11.52
2023-02-06T06:04:38.541Z,10.27
2023-02-06T06:07:40.153Z,10.15
2023-02-06T06:10:41.744Z,9.88
2023-02-06T06:13:43.321Z,9.50
2023-02-06T06:16:44.946Z,10.23
2023-02-06T06:19:46.544Z,9.48
2023-02-06T06:22:48.149Z,10.15
2023-02-06T06:25:50.329Z,10.70
2023-02-06T06:28:51.985Z,10.65
2023-02-06T06:31:53.704Z,10.50
2023-02-06T06:34:55.320Z,11.55
2023-02-06T06:37:56.888Z,11.10
2023-02-06T06:40:58.576Z,11.25
2023-02-06T06:44:00.743Z,11.50
2023-02-06T06:47:02.476Z,11.23
2023-02-06T06:50:05.093Z,10.32
2023-02-06T06:53:06.824Z,11.80
2023-02-06T06:56:11.470Z,13.25
2023-02-06T06:59:12.985Z,12.93
2023-02-06T07:02:14.909Z,11.65
2023-02-06T07:05:16.623Z,10.10
2023-02-06T07:08:18.263Z,10.70
2023-02-06T07:11:19.964Z,7.88
2023-02-06T07:14:21.539Z,7.35
2023-02-06T07:17:23.281Z,7.38
2023-02-06T07:20:24.944Z,6.38
2023-02-06T07:23:27.028Z,8.45
2023-02-06T07:26:28.969Z,8.73
2023-02-06T07:29:30.581Z,8.95
2023-02-06T07:32:35.948Z,10.52
2023-02-06T07:35:37.803Z,13.75
2023-02-06T07:38:40.097Z,12.68
2023-02-06T07:41:42.878Z,14.52
2023-02-06T07:44:48.551Z,12.02
2023-02-06T07:47:51.998Z,12.77
2023-02-06T07:50:53.562Z,10.90
2023-02-06T07:53:55.238Z,13.10
2023-02-06T07:56:56.889Z,14.05
2023-02-06T07:59:58.461Z,12.55
2023-02-06T08:03:00.021Z,13.63
2023-02-06T08:06:06.787Z,13.10
2023-02-06T08:12:22.452Z,12.20
2023-02-06T08:15:25.203Z,13.60
2023-02-06T08:18:26.768Z,12.02
2023-02-06T08:21:28.378Z,12.32
2023-02-06T08:24:30.095Z,11.60
2023-02-06T08:27:32.070Z,14.45
2023-02-06T08:30:34.486Z,18.23
2023-02-06T08:33:36.658Z,15.00
2023-02-06T08:36:38.552Z,14.98
2023-02-06T08:39:40.363Z,20.38
2023-02-06T08:42:41.983Z,14.75
2023-02-06T08:45:48.571Z,15.75
2023-02-06T08:48:55.831Z,13.20
2023-02-06T08:51:57.444Z,13.40
2023-02-06T08:54:58.997Z,15.43
2023-02-06T08:58:00.638Z,12.60
2023-02-06T09:01:10.526Z,13.18
2023-02-06T09:04:14.215Z,13.50
2023-02-06T09:07:17.351Z,12.95
2023-02-06T09:10:27.201Z,11.75
2023-02-06T09:13:29.547Z,10.43
2023-02-06T09:16:34.493Z,10.15
2023-02-06T09:19:36.054Z,10.90
2023-02-06T09:22:37.673Z,11.48
2023-02-06T09:25:39.883Z,12.18
2023-02-06T09:28:41.676Z,12.40
2023-02-06T09:31:43.566Z,11.40
2023-02-06T09:34:45.141Z,11.05
2023-02-06T09:37:47.819Z,11.93
2023-02-06T09:40:49.691Z,11.13
2023-02-06T09:43:56.838Z,10.77
2023-02-06T09:47:20.058Z,9.98
2023-02-06T09:50:39.686Z,11.07
2023-02-06T09:54:25.757Z,13.07
2023-02-06T09:57:48.807Z,11.93
2023-02-06T10:01:04.515Z,11.00
2023-02-06T10:04:30.981Z,11.40
2023-02-06T10:07:57.295Z,11.25
2023-02-06T10:11:01.678Z,10.70
2023-02-06T10:14:19.143Z,11.20
2023-02-06T10:17:25.826Z,11.65
2023-02-06T10:20:38.137Z,11.80
2023-02-06T10:23:50.279Z,13.05
2023-02-06T10:26:53.586Z,11.05
2023-02-06T10:29:55.193Z,12.57
2023-02-06T10:33:25.229Z,13.35
2023-02-06T10:36:46.050Z,12.82
2023-02-06T10:40:16.364Z,11.98
2023-02-06T10:43:40.441Z,12.05
2023-02-06T10:46:46.175Z,12.50
2023-02-06T10:49:55.342Z,11.30
2023-02-06T10:53:03.994Z,13.35
2023-02-06T10:56:15.363Z,13.32
2023-02-06T10:59:33.750Z,12.13
2023-02-06T11:03:06.320Z,12.32
2023-02-06T11:06:12.573Z,10.20
2023-02-06T11:09:15.212Z,11.15
2023-02-06T11:12:30.089Z,10.50
2023-02-06T11:15:41.075Z,9.90
2023-02-06T11:18:48.598Z,11.65
2023-02-06T11:21:56.510Z,11.40
2023-02-06T11:25:10.311Z,9.73
2023-02-06T11:28:17.994Z,11.90
2023-02-06T11:31:44.288Z,10.25
2023-02-06T11:34:56.541Z,12.73
2023-02-06T11:38:25.572Z,12.20
2023-02-06T11:41:28.108Z,12.60
2023-02-06T11:44:40.518Z,10.15
2023-02-06T11:47:42.115Z,10.43
2023-02-06T11:50:54.819Z,10.05
2023-02-06T11:54:02.564Z,8.68
2023-02-06T11:57:22.620Z,8.90
2023-02-06T12:00:24.686Z,8.45
2023-02-06T12:03:32.014Z,12.13
2023-02-06T12:06:37.059Z,9.23
2023-02-06T12:09:38.674Z,9.50
2023-02-06T12:12:44.189Z,8.10
2023-02-06T12:15:50.008Z,8.45
2023-02-06T12:18:57.718Z,8.60
2023-02-06T12:22:07.656Z,8.38
2023-02-06T12:25:34.838Z,8.23
2023-02-06T12:29:01.483Z,8.02
2023-02-06T12:32:14.733Z,9.10
2023-02-06T12:35:31.009Z,8.48
2023-02-06T12:38:40.236Z,8.43
2023-02-06T12:41:53.437Z,8.43
2023-02-06T12:45:12.700Z,8.07
2023-02-06T12:48:23.739Z,8.20
2023-02-06T12:51:40.853Z,7.43
2023-02-06T12:57:49.673Z,6.93
2023-02-06T13:01:32.091Z,7.45
2023-02-06T13:04:37.604Z,7.25
2023-02-06T13:07:48.958Z,6.90
2023-02-06T13:11:03.174Z,7.13
2023-02-06T13:14:08.538Z,7.63
2023-02-06T13:17:17.976Z,7.88
2023-02-06T13:20:21.469Z,6.95
2023-02-06T13:23:24.342Z,7.15
2023-02-06T13:26:48.886Z,7.43
2023-02-06T13:29:54.085Z,6.43
2023-02-06T13:33:10.819Z,6.75
2023-02-06T13:36:27.267Z,6.05
2023-02-06T13:39:32.340Z,6.93
2023-02-06T13:42:42.189Z,6.72
2023-02-06T13:45:53.306Z,7.00
2023-02-06T13:49:28.366Z,5.55
2023-02-06T13:53:08.952Z,8.88
2023-02-06T13:56:25.945Z,8.00
2023-02-06T13:59:32.655Z,8.00
2023-02-06T14:06:14.810Z,6.72
2023-02-06T14:09:30.681Z,8.25
2023-02-06T14:12:54.644Z,6.75
2023-02-06T14:16:17.867Z,5.63
2023-02-06T14:19:22.289Z,6.25
2023-02-06T14:22:47.249Z,6.50
2023-02-06T14:26:10.028Z,6.45
2023-02-06T14:29:44.469Z,7.43
2023-02-06T14:33:12.443Z,6.55
2023-02-06T14:36:32.137Z,6.00
2023-02-06T14:39:44.121Z,6.97
2023-02-06T14:42:46.701Z,5.90
2023-02-06T14:46:06.294Z,7.50
2023-02-06T14:49:18.729Z,8.98
2023-02-06T14:52:23.994Z,7.35
2023-02-06T14:55:39.003Z,7.22
2023-02-06T14:58:46.094Z,5.78
2023-02-06T15:01:50.198Z,6.32
2023-02-06T15:04:52.210Z,7.10
2023-02-06T15:07:59.259Z,8.13
2023-02-06T15:11:16.814Z,6.82
2023-02-06T15:14:24.903Z,5.90
2023-02-06T15:17:26.896Z,6.53
2023-02-06T15:20:36.323Z,7.25
2023-02-06T15:24:12.937Z,6.47
2023-02-06T15:27:31.593Z,12.18
2023-02-06T15:30:35.642Z,7.30
2023-02-06T15:33:37.424Z,6.68
2023-02-06T15:36:39.412Z,10.20
2023-02-06T15:39:41.820Z,6.75
2023-02-06T15:42:43.520Z,6.65
2023-02-06T15:45:46.264Z,7.15
2023-02-06T15:48:48.954Z,8.75
2023-02-06T15:51:55.006Z,7.63
2023-02-06T15:54:58.150Z,7.80
2023-02-06T15:58:02.045Z,7.38
2023-02-06T16:01:07.669Z,6.85
2023-02-06T16:04:19.733Z,6.83
2023-02-06T16:07:24.519Z,9.32
2023-02-06T16:10:31.041Z,7.65
2023-02-06T16:13:33.047Z,5.97
2023-02-06T16:16:34.678Z,5.78
2023-02-06T16:19:46.624Z,8.43
2023-02-06T16:22:48.199Z,5.40
2023-02-06T16:26:02.027Z,7.30
2023-02-06T16:29:09.560Z,7.68
2023-02-06T16:32:31.490Z,6.28
2023-02-06T16:35:33.083Z,5.43
2023-02-06T16:38:34.692Z,5.18
2023-02-06T16:41:39.443Z,4.95
2023-02-06T16:44:45.312Z,5.40
2023-02-06T16:47:47.525Z,5.15
2023-02-06T16:50:49.306Z,5.70
2023-02-06T16:53:51.589Z,5.88
2023-02-06T16:56:55.220Z,6.35
2023-02-06T16:59:57.637Z,5.30
2023-02-06T17:02:59.745Z,5.47
2023-02-06T17:06:01.371Z,4.55
2023-02-06T17:09:08.900Z,5.78
2023-02-06T17:12:21.863Z,6.40
2023-02-06T17:15:23.465Z,8.73
2023-02-06T17:18:25.204Z,7.78
2023-02-06T17:21:29.747Z,6.43
2023-02-06T17:24:31.360Z,5.90
2023-02-06T17:27:32.937Z,5.10
2023-02-06T17:30:36.523Z,5.07
2023-02-06T17:33:38.430Z,4.90
2023-02-06T17:36:40.877Z,4.68
2023-02-06T17:39:42.550Z,5.65
2023-02-06T17:42:44.107Z,4.78
2023-02-06T17:45:45.925Z,5.30
2023-02-06T17:48:47.680Z,5.13
2023-02-06T17:51:49.258Z,6.82
2023-02-06T17:54:51.146Z,7.65
2023-02-06T17:57:53.587Z,6.13
2023-02-06T18:00:55.161Z,5.43
2023-02-06T18:03:56.722Z,5.78
2023-02-06T18:06:58.279Z,5.30
2023-02-06T18:09:59.880Z,6.53
2023-02-06T18:13:01.501Z,13.82
2023-02-06T18:16:03.538Z,14.38
2023-02-06T18:19:05.141Z,13.63
2023-02-06T18:22:07.099Z,12.85
2023-02-06T18:25:11.595Z,11.43
2023-02-06T18:28:14.821Z,8.80
2023-02-06T18:31:27.738Z,7.28
2023-02-06T18:34:29.355Z,6.50
2023-02-06T18:37:31.000Z,6.45
2023-02-06T18:40:32.800Z,13.52
2023-02-06T18:43:34.318Z,7.30
2023-02-06T18:46:36.334Z,6.22
2023-02-06T18:49:38.856Z,5.72
2023-02-06T18:52:40.498Z,5.25
2023-02-06T18:55:42.372Z,5.38
2023-02-06T18:58:43.924Z,5.32
2023-02-06T19:01:45.659Z,19.73
2023-02-06T19:04:47.266Z,10.00
2023-02-06T19:07:50.732Z,9.85
2023-02-06T19:10:52.310Z,7.00
2023-02-06T19:13:54.619Z,6.30
2023-02-06T19:16:58.215Z,11.15
2023-02-06T19:19:59.949Z,15.63
2023-02-06T19:23:01.788Z,11.00
2023-02-06T19:26:08.592Z,16.85
2023-02-06T19:32:12.933Z,9.50
2023-02-06T19:35:15.503Z,9.50
2023-02-06T19:38:17.133Z,10.05
2023-02-06T19:41:20.959Z,8.05
2023-02-06T19:44:22.621Z,17.13
2023-02-06T19:47:24.288Z,13.85
2023-02-06T19:50:25.863Z,18.63
2023-02-06T19:53:27.499Z,9.38
2023-02-06T19:56:42.259Z,6.53
2023-02-06T19:59:43.833Z,6.20
2023-02-06T20:02:45.409Z,7.18
2023-02-06T20:05:47.010Z,6.55
2023-02-06T20:08:48.797Z,5.88
2023-02-06T20:11:50.397Z,5.28
2023-02-06T20:14:52.123Z,4.72
2023-02-06T20:17:53.698Z,4.80
2023-02-06T20:20:55.536Z,5.32
2023-02-06T20:23:59.635Z,5.80
2023-02-06T20:27:05.695Z,5.68
2023-02-06T20:30:08.122Z,6.53
2023-02-06T20:33:10.837Z,5.93
2023-02-06T20:36:18.064Z,5.35
2023-02-06T20:39:19.847Z,6.05
2023-02-06T20:42:24.645Z,6.35
2023-02-06T20:45:26.219Z,5.53
2023-02-06T20:48:28.177Z,6.38
2023-02-06T20:51:31.348Z,6.30
2023-02-06T20:54:32.978Z,6.80
2023-02-06T20:57:35.491Z,6.47
2023-02-06T21:00:37.504Z,6.70
2023-02-06T21:03:39.448Z,5.97
2023-02-06T21:06:41.129Z,6.25
2023-02-06T21:09:42.653Z,5.25
2023-02-06T21:12:44.211Z,5.60
2023-02-06T21:15:57.184Z,5.03
2023-02-06T21:18:59.551Z,5.30
2023-02-06T21:22:01.921Z,6.45
2023-02-06T21:25:04.514Z,6.10
2023-02-06T21:28:06.464Z,5.43
2023-02-06T21:31:12.960Z,6.07
2023-02-06T21:34:19.106Z,6.13
2023-02-06T21:37:22.566Z,6.82
2023-02-06T21:40:24.164Z,5.78
2023-02-06T21:43:25.825Z,6.35
2023-02-06T21:46:30.356Z,6.85
2023-02-06T21:49:32.131Z,5.72
2023-02-06T21:52:37.859Z,5.57
2023-02-06T21:55:43.882Z,8.20
2023-02-06T21:58:45.831Z,7.50
2023-02-06T22:01:47.438Z,5.55
2023-02-06T22:04:49.545Z,6.70
2023-02-06T22:07:51.146Z,7.97
2023-02-06T22:10:52.724Z,8.15
2023-02-06T22:13:58.667Z,9.15
2023-02-06T22:17:00.449Z,6.53
2023-02-06T22:20:02.158Z,7.75
2023-02-06T22:23:03.725Z,6.85
2023-02-06T22:26:08.097Z,7.20
2023-02-06T22:29:16.157Z,6.72
2023-02-06T22:32:17.984Z,6.18
2023-02-06T22:35:19.685Z,6.55
2023-02-06T22:38:21.425Z,7.53
2023-02-06T22:41:23.576Z,7.85
2023-02-06T22:44:25.309Z,7.78
2023-02-06T22:47:26.904Z,7.35
2023-02-06T22:50:28.458Z,7.07
2023-02-06T22:53:30.059Z,7.82
2023-02-06T22:56:37.255Z,7.25
2023-02-06T22:59:39.063Z,7.63
2023-02-06T23:02:40.702Z,6.70
2023-02-06T23:05:42.278Z,5.80
2023-02-06T23:08:43.898Z,5.80
2023-02-06T23:11:46.065Z,6.22
2023-02-06T23:14:47.608Z,5.70
2023-02-06T23:17:49.635Z,6.28
2023-02-06T23:20:59.780Z,5.50
2023-02-06T23:24:01.676Z,5.70
2023-02-06T23:27:03.376Z,5.70
2023-02-06T23:30:05.801Z,5.80
2023-02-06T23:33:07.471Z,5.50
2023-02-06T23:36:13.762Z,6.07
2023-02-06T23:39:15.869Z,5.43
2023-02-06T23:42:17.463Z,10.35
2023-02-06T23:45:19.058Z,7.05
2023-02-06T23:48:20.818Z,6.32
2023-02-06T23:51:23.152Z,5.68
2023-02-06T23:54:24.687Z,5.88
2023-02-06T23:57:26.316Z,5.88
